Time;durP1;ratioP1;P1;durP2;ratioP2;P2;SDS_P1;SDS_P2;PMS_P1;PMS_P2;Temp;Humidity;BMP_temperature;BMP_pressure;BME280_temperature;BME280_humidity;BME280_pressure;Samples;Min_cycle;Max_cycle;Signal;HPM_P1;HPM_P2
2023/04/29 00:00:14;;;;;;;;;;;10.80;99.90;;;;;;8289874;28;19916;-76
2023/04/29 00:04:15;;;;;;;;;;;11.00;99.90;;;;;;8289313;28;19921;-76
2023/04/29 00:08:15;;;;;;;;;;;10.80;99.90;;;;;;8290033;28;19909;-75
2023/04/29 00:12:16;;;;;;;;;;;10.70;99.90;;;;;;8297558;28;19979;-77
2023/04/29 00:16:17;;;;;;;;;;;10.60;99.90;;;;;;8273784;28;20016;-77
2023/04/29 00:20:18;;;;;;;;;;;10.50;99.90;;;;;;8283883;28;20536;-77
2023/04/29 00:24:18;;;;;;;;;;;10.50;99.90;;;;;;8285146;28;20020;-76
2023/04/29 00:28:19;;;;;;;;;;;10.30;99.90;;;;;;8287135;28;20309;-75
2023/04/29 00:32:21;;;;;;;;;;;10.30;99.90;;;;;;8263701;28;20004;-76
2023/04/29 00:36:21;;;;;;;;;;;10.20;99.90;;;;;;8289284;28;20285;-76
2023/04/29 00:40:22;;;;;;;;;;;10.20;99.90;;;;;;8286698;28;19920;-76
2023/04/29 00:44:22;;;;;;;;;;;10.20;99.90;;;;;;8271812;28;19913;-76
2023/04/29 00:48:22;;;;;;;;;;;10.30;99.90;;;;;;8282007;28;19948;-76
2023/04/29 00:52:23;;;;;;;;;;;10.20;99.90;;;;;;8271023;28;19941;-75
2023/04/29 00:56:24;;;;;;;;;;;10.50;99.90;;;;;;8283998;28;19917;-76
2023/04/29 01:00:25;;;;;;;;;;;10.50;99.90;;;;;;8288552;28;20012;-76
2023/04/29 01:04:26;;;;;;;;;;;10.20;99.90;;;;;;8270228;28;19920;-75
2023/04/29 01:08:36;;;;;;;;;;;10.30;99.90;;;;;;8288512;28;19917;-76
2023/04/29 01:12:58;;;;;;;;;;;10.30;99.90;;;;;;8283467;28;19914;-76
2023/04/29 01:17:00;;;;;;;;;;;10.40;99.90;;;;;;8288782;28;19922;-75
2023/04/29 01:21:01;;;;;;;;;;;10.60;99.90;;;;;;8287033;28;19940;-76
2023/04/29 01:25:01;;;;;;;;;;;11.00;99.90;;;;;;8286136;28;19991;-76
2023/04/29 01:29:23;;;;;;;;;;;11.30;99.90;;;;;;8295742;28;19910;-75
2023/04/29 01:33:36;;;;;;;;;;;11.40;99.90;;;;;;8289710;28;19957;-76
2023/04/29 01:37:53;;;;;;;;;;;11.90;99.90;;;;;;8289322;28;20376;-78
2023/04/29 01:42:01;;;;;;;;;;;11.70;99.90;;;;;;8295254;28;19914;-76
2023/04/29 01:46:04;;;;;;;;;;;11.80;99.90;;;;;;8287301;28;20440;-76
2023/04/29 01:50:05;;;;;;;;;;;12.00;99.90;;;;;;8292786;28;19975;-76
2023/04/29 01:54:05;;;;;;;;;;;11.90;99.90;;;;;;8276725;28;19922;-76
2023/04/29 01:58:06;;;;;;;;;;;12.10;99.90;;;;;;8293426;28;19921;-76
2023/04/29 02:02:06;;;;;;;;;;;12.20;99.90;;;;;;8289352;28;19921;-76
2023/04/29 02:06:07;;;;;;;;;;;12.40;99.90;;;;;;8291227;28;19964;-76
2023/04/29 02:10:07;;;;;;;;;;;12.30;99.90;;;;;;8294772;28;19914;-76
2023/04/29 02:14:08;;;;;;;;;;;12.00;99.90;;;;;;8275190;28;19910;-76
2023/04/29 02:18:08;;;;;;;;;;;12.00;99.90;;;;;;8292719;28;19922;-76
2023/04/29 02:22:11;;;;;;;;;;;11.90;99.90;;;;;;8276963;28;19917;-77
2023/04/29 02:26:12;;;;;;;;;;;12.20;99.90;;;;;;8291825;28;20035;-76
2023/04/29 02:30:13;;;;;;;;;;;12.20;99.90;;;;;;8288907;28;20392;-76
2023/04/29 02:34:13;;;;;;;;;;;12.40;99.90;;;;;;8291230;28;19945;-77
2023/04/29 02:38:14;;;;;;;;;;;12.50;99.90;;;;;;8289250;28;20007;-77
2023/04/29 02:42:14;;;;;;;;;;;12.60;99.90;;;;;;8291939;28;19917;-76
2023/04/29 02:46:15;;;;;;;;;;;12.70;99.90;;;;;;8291543;28;20282;-75
2023/04/29 02:50:16;;;;;;;;;;;12.60;99.90;;;;;;8291000;28;20437;-76
2023/04/29 02:54:16;;;;;;;;;;;12.70;99.90;;;;;;8289446;28;19965;-76
2023/04/29 02:58:17;;;;;;;;;;;12.70;99.90;;;;;;8292943;28;19956;-76
2023/04/29 03:02:17;;;;;;;;;;;12.80;99.90;;;;;;8292468;28;19957;-76
2023/04/29 03:06:17;;;;;;;;;;;12.70;99.90;;;;;;8293310;28;19928;-76
2023/04/29 03:10:18;;;;;;;;;;;12.60;99.90;;;;;;8294233;28;19920;-77
2023/04/29 03:14:19;;;;;;;;;;;12.60;99.90;;;;;;8275929;28;19914;-76
2023/04/29 03:18:19;;;;;;;;;;;12.60;99.90;;;;;;8287415;28;19913;-75
2023/04/29 03:22:20;;;;;;;;;;;12.70;99.90;;;;;;8295438;28;20364;-77
2023/04/29 03:26:23;;;;;;;;;;;12.50;99.90;;;;;;8286043;28;19933;-77
2023/04/29 03:30:23;;;;;;;;;;;12.30;99.90;;;;;;8293249;28;19960;-78
2023/04/29 03:34:24;;;;;;;;;;;12.50;99.90;;;;;;8294475;28;19961;-78
2023/04/29 03:38:24;;;;;;;;;;;12.70;99.90;;;;;;8292833;28;20339;-77
2023/04/29 03:42:25;;;;;;;;;;;12.30;99.90;;;;;;8276063;28;19968;-78
2023/04/29 03:46:26;;;;;;;;;;;12.60;99.90;;;;;;8283485;28;19922;-77
2023/04/29 03:50:26;;;;;;;;;;;12.40;99.90;;;;;;8297058;28;19944;-77
2023/04/29 03:54:27;;;;;;;;;;;12.70;99.90;;;;;;8292109;28;20393;-77
2023/04/29 03:58:27;;;;;;;;;;;12.60;99.90;;;;;;8277831;28;19991;-77
2023/04/29 04:02:27;;;;;;;;;;;12.50;99.90;;;;;;8274617;28;19909;-77
2023/04/29 04:06:28;;;;;;;;;;;12.30;99.90;;;;;;8275085;28;19921;-77
2023/04/29 04:10:28;;;;;;;;;;;12.30;99.90;;;;;;8293389;28;19917;-78
2023/04/29 04:14:29;;;;;;;;;;;12.20;99.90;;;;;;8297095;28;19940;-76
2023/04/29 04:18:30;;;;;;;;;;;12.20;99.90;;;;;;8294235;28;19919;-77
2023/04/29 04:22:30;;;;;;;;;;;12.40;99.90;;;;;;8279855;28;19992;-77
2023/04/29 04:26:30;;;;;;;;;;;12.50;99.90;;;;;;8288013;28;19921;-78
2023/04/29 04:30:31;;;;;;;;;;;12.50;99.90;;;;;;8302902;28;19995;-77
2023/04/29 04:34:31;;;;;;;;;;;12.40;99.90;;;;;;8294301;28;19952;-78
2023/04/29 04:38:32;;;;;;;;;;;12.70;99.90;;;;;;8269021;28;19918;-76
2023/04/29 04:42:33;;;;;;;;;;;12.60;99.90;;;;;;8290416;28;19917;-77
2023/04/29 04:46:34;;;;;;;;;;;12.40;99.90;;;;;;8292612;28;20492;-77
2023/04/29 04:50:34;;;;;;;;;;;12.50;99.90;;;;;;8292352;28;19918;-79
2023/04/29 04:54:34;;;;;;;;;;;12.60;99.90;;;;;;8275161;28;20282;-78
2023/04/29 04:58:35;;;;;;;;;;;12.60;99.90;;;;;;8271357;28;19914;-78
2023/04/29 05:02:36;;;;;;;;;;;12.70;99.90;;;;;;8280548;28;19913;-78
2023/04/29 05:06:36;;;;;;;;;;;12.60;99.90;;;;;;8282196;28;19968;-79
2023/04/29 05:10:37;;;;;;;;;;;12.70;99.90;;;;;;8296162;28;19913;-78
2023/04/29 05:14:37;;;;;;;;;;;12.90;99.90;;;;;;8282530;28;19909;-78
2023/04/29 05:18:38;;;;;;;;;;;13.10;99.90;;;;;;8302000;28;19914;-79
2023/04/29 05:22:38;;;;;;;;;;;13.30;99.90;;;;;;8272234;28;19914;-78
2023/04/29 05:26:39;;;;;;;;;;;13.50;99.90;;;;;;8287179;28;19926;-78
2023/04/29 05:30:39;;;;;;;;;;;13.50;99.90;;;;;;8274007;28;19921;-79
2023/04/29 05:34:40;;;;;;;;;;;13.60;99.90;;;;;;8278898;28;20008;-79
2023/04/29 05:38:40;;;;;;;;;;;13.90;99.90;;;;;;8299188;28;19929;-79
2023/04/29 05:42:41;;;;;;;;;;;13.90;99.90;;;;;;8296351;28;19929;-79
2023/04/29 05:46:42;;;;;;;;;;;14.40;99.90;;;;;;8299298;28;19936;-78
2023/04/29 05:50:43;;;;;;;;;;;14.50;99.90;;;;;;8291448;28;19913;-79
2023/04/29 05:54:43;;;;;;;;;;;14.80;99.90;;;;;;8307602;28;19952;-79
2023/04/29 05:58:43;;;;;;;;;;;15.00;99.90;;;;;;8280831;28;19909;-78
2023/04/29 06:02:44;;;;;;;;;;;15.10;99.90;;;;;;8294710;28;19913;-79
2023/04/29 06:06:45;;;;;;;;;;;15.60;99.90;;;;;;8275123;28;20402;-78
2023/04/29 06:10:46;;;;;;;;;;;16.70;99.90;;;;;;8273792;28;20601;-78
2023/04/29 06:14:46;;;;;;;;;;;16.80;99.90;;;;;;8277425;28;19917;-79
2023/04/29 06:18:46;;;;;;;;;;;16.80;99.90;;;;;;8290380;28;20008;-78
2023/04/29 06:22:47;;;;;;;;;;;16.40;99.90;;;;;;8269166;28;19953;-78
2023/04/29 06:26:47;;;;;;;;;;;16.50;99.90;;;;;;8273869;28;19929;-78
2023/04/29 06:30:49;;;;;;;;;;;17.50;99.90;;;;;;8271892;28;19918;-78
2023/04/29 06:34:50;;;;;;;;;;;17.60;99.90;;;;;;8271420;28;19917;-78
2023/04/29 06:38:50;;;;;;;;;;;16.70;99.90;;;;;;8275983;28;19936;-77
2023/04/29 06:42:51;;;;;;;;;;;17.20;99.90;;;;;;8280250;28;19913;-79
2023/04/29 06:46:52;;;;;;;;;;;17.70;99.90;;;;;;8271251;28;19925;-77
2023/04/29 06:50:53;;;;;;;;;;;18.10;99.90;;;;;;8276663;28;19988;-78
2023/04/29 06:54:53;;;;;;;;;;;18.60;99.90;;;;;;8292704;28;20397;-79
2023/04/29 06:58:54;;;;;;;;;;;18.80;99.90;;;;;;8286812;28;19996;-78
2023/04/29 07:02:55;;;;;;;;;;;18.80;99.90;;;;;;8280369;28;19914;-78
2023/04/29 07:06:55;;;;;;;;;;;19.40;99.90;;;;;;8274241;28;20008;-78
2023/04/29 07:10:56;;;;;;;;;;;19.90;99.90;;;;;;8298465;28;19913;-78
2023/04/29 07:14:57;;;;;;;;;;;20.00;99.90;;;;;;8277885;28;20396;-78
2023/04/29 07:18:58;;;;;;;;;;;20.50;99.90;;;;;;8293888;28;19918;-78
2023/04/29 07:22:58;;;;;;;;;;;20.60;99.90;;;;;;8295473;28;19915;-78
2023/04/29 07:26:58;;;;;;;;;;;20.30;99.90;;;;;;8292938;28;20075;-77
2023/04/29 07:30:59;;;;;;;;;;;20.10;99.90;;;;;;8293150;28;19921;-78
2023/04/29 07:35:00;;;;;;;;;;;20.50;99.90;;;;;;8276636;28;19972;-78
2023/04/29 07:39:00;;;;;;;;;;;19.50;99.90;;;;;;8294965;28;20000;-78
2023/04/29 07:43:05;;;;;;;;;;;18.90;99.90;;;;;;8294292;28;21268;-78
2023/04/29 07:47:06;;;;;;;;;;;18.80;99.90;;;;;;8292769;28;19914;-78
2023/04/29 07:51:11;;;;;;;;;;;19.50;99.90;;;;;;8294599;28;19959;-78
2023/04/29 07:55:11;;;;;;;;;;;19.80;99.90;;;;;;8297983;28;19924;-79
2023/04/29 07:59:12;;;;;;;;;;;20.70;99.90;;;;;;8277878;28;20235;-79
2023/04/29 08:03:12;;;;;;;;;;;21.40;99.90;;;;;;8293762;28;20366;-78
2023/04/29 08:07:13;;;;;;;;;;;20.70;99.90;;;;;;8280235;28;19920;-79
2023/04/29 08:11:17;;;;;;;;;;;19.90;99.90;;;;;;8297887;28;19925;-79
2023/04/29 08:15:17;;;;;;;;;;;19.80;99.90;;;;;;8293287;28;19910;-78
2023/04/29 08:19:18;;;;;;;;;;;19.60;99.90;;;;;;8297567;28;19921;-78
2023/04/29 08:23:18;;;;;;;;;;;19.00;99.90;;;;;;8294798;28;19914;-77
2023/04/29 08:27:20;;;;;;;;;;;18.50;99.90;;;;;;8277376;28;19921;-78
2023/04/29 08:31:21;;;;;;;;;;;18.30;99.90;;;;;;8279311;28;19920;-79
2023/04/29 08:35:21;;;;;;;;;;;18.20;99.90;;;;;;8292443;28;20390;-78
2023/04/29 08:39:22;;;;;;;;;;;17.80;99.90;;;;;;8295101;28;20539;-77
2023/04/29 08:43:22;;;;;;;;;;;17.90;99.90;;;;;;8297116;28;19914;-78
2023/04/29 08:47:23;;;;;;;;;;;18.20;99.90;;;;;;8292563;28;19917;-78
2023/04/29 08:51:23;;;;;;;;;;;19.00;99.90;;;;;;8288306;28;19914;-77
2023/04/29 08:55:25;;;;;;;;;;;19.10;99.90;;;;;;8294633;28;20432;-78
2023/04/29 08:59:27;;;;;;;;;;;19.00;99.90;;;;;;8295089;28;20371;-78
2023/04/29 09:03:34;;;;;;;;;;;18.30;99.90;;;;;;8301790;28;19936;-78
2023/04/29 09:07:36;;;;;;;;;;;17.10;99.90;;;;;;8275676;28;19922;-78
2023/04/29 09:11:36;;;;;;;;;;;16.60;99.90;;;;;;8296500;28;19913;-78
2023/04/29 09:15:39;;;;;;;;;;;16.30;99.90;;;;;;8274156;28;19917;-78
2023/04/29 09:19:39;;;;;;;;;;;16.20;99.90;;;;;;8278274;28;19983;-78
2023/04/29 09:23:40;;;;;;;;;;;16.10;99.90;;;;;;8293698;28;19913;-78
2023/04/29 09:27:41;;;;;;;;;;;16.30;99.90;;;;;;8296697;28;19922;-78
2023/04/29 09:31:42;;;;;;;;;;;17.90;99.90;;;;;;8297317;28;19917;-78
2023/04/29 09:35:42;;;;;;;;;;;18.90;99.90;;;;;;8277950;28;19921;-77
2023/04/29 09:39:42;;;;;;;;;;;19.10;99.90;;;;;;8293506;28;19936;-78
2023/04/29 09:43:43;;;;;;;;;;;19.50;99.90;;;;;;8267838;28;19921;-79
2023/04/29 09:47:44;;;;;;;;;;;19.50;99.90;;;;;;8275163;28;19945;-80
2023/04/29 09:51:51;;;;;;;;;;;19.50;99.90;;;;;;8297620;28;19914;-80
2023/04/29 09:55:51;;;;;;;;;;;19.60;99.90;;;;;;8303808;28;19917;-80
2023/04/29 09:59:52;;;;;;;;;;;20.20;99.90;;;;;;8287002;28;19913;-79
2023/04/29 10:03:53;;;;;;;;;;;20.30;99.90;;;;;;8282341;28;19920;-80
2023/04/29 10:07:54;;;;;;;;;;;20.30;99.90;;;;;;8289250;28;19914;-82
2023/04/29 10:11:55;;;;;;;;;;;20.10;99.90;;;;;;8300879;28;19915;-81
2023/04/29 10:16:07;;;;;;;;;;;19.90;99.90;;;;;;8319431;28;19917;-81
2023/04/29 10:20:08;;;;;;;;;;;19.50;99.90;;;;;;8301152;28;20493;-83
2023/04/29 10:24:09;;;;;;;;;;;19.50;99.90;;;;;;8294302;28;19918;-80
2023/04/29 10:28:15;;;;;;;;;;;19.90;99.90;;;;;;8281168;28;19917;-81
2023/04/29 10:32:16;;;;;;;;;;;20.80;99.90;;;;;;8297380;28;19920;-79
2023/04/29 10:36:17;;;;;;;;;;;20.00;99.90;;;;;;8298468;28;19921;-79
2023/04/29 10:40:21;;;;;;;;;;;21.00;99.90;;;;;;8295325;28;19913;-78
2023/04/29 10:44:22;;;;;;;;;;;21.10;99.90;;;;;;8295180;28;19976;-79
2023/04/29 10:48:24;;;;;;;;;;;20.10;99.90;;;;;;8300228;28;19910;-79
2023/04/29 10:52:26;;;;;;;;;;;20.80;99.90;;;;;;8292565;28;19917;-79
2023/04/29 10:56:40;;;;;;;;;;;19.80;99.90;;;;;;8293273;28;19925;-78
2023/04/29 11:00:40;;;;;;;;;;;20.30;99.90;;;;;;8293101;28;19988;-78
2023/04/29 11:05:00;;;;;;;;;;;20.20;99.90;;;;;;8293665;28;19921;-79
2023/04/29 11:09:14;;;;;;;;;;;22.00;99.90;;;;;;8293267;28;19917;-78
2023/04/29 11:13:28;;;;;;;;;;;21.00;99.90;;;;;;8293206;28;19949;-78
2023/04/29 11:17:36;;;;;;;;;;;20.90;99.90;;;;;;8276523;28;19909;-78
2023/04/29 11:21:37;;;;;;;;;;;20.70;99.90;;;;;;8280277;28;20000;-78
2023/04/29 11:25:38;;;;;;;;;;;21.10;99.90;;;;;;8275579;28;19917;-79
2023/04/29 11:29:38;;;;;;;;;;;21.50;99.90;;;;;;8291810;28;19920;-79
2023/04/29 11:33:39;;;;;;;;;;;22.80;99.90;;;;;;8289098;28;19909;-79
2023/04/29 11:37:40;;;;;;;;;;;22.10;99.90;;;;;;8274724;28;19925;-79
2023/04/29 11:41:41;;;;;;;;;;;21.60;99.90;;;;;;8275964;28;19910;-79
2023/04/29 11:45:43;;;;;;;;;;;21.30;99.90;;;;;;8293395;28;19925;-80
2023/04/29 11:49:44;;;;;;;;;;;20.60;99.90;;;;;;8275390;28;19914;-78
2023/04/29 11:53:44;;;;;;;;;;;20.00;99.90;;;;;;8274122;28;20860;-79
2023/04/29 11:57:47;;;;;;;;;;;21.10;99.90;;;;;;8274484;28;19996;-79
2023/04/29 12:01:48;;;;;;;;;;;22.50;99.90;;;;;;8274358;28;19921;-79
2023/04/29 12:05:55;;;;;;;;;;;21.30;99.90;;;;;;8292397;28;20049;-78
2023/04/29 12:09:56;;;;;;;;;;;19.80;99.90;;;;;;8294220;28;19952;-79
2023/04/29 12:13:57;;;;;;;;;;;19.50;99.90;;;;;;8274168;28;19915;-80
2023/04/29 12:17:59;;;;;;;;;;;20.70;99.90;;;;;;8274879;28;20402;-79
2023/04/29 12:22:01;;;;;;;;;;;20.40;99.90;;;;;;8295263;28;20016;-80
2023/04/29 12:26:02;;;;;;;;;;;21.10;99.90;;;;;;8271710;28;20306;-79
2023/04/29 12:30:10;;;;;;;;;;;22.40;99.90;;;;;;8274691;28;19909;-79
2023/04/29 12:34:10;;;;;;;;;;;22.50;99.90;;;;;;8273597;28;19948;-79
2023/04/29 12:38:14;;;;;;;;;;;23.40;99.90;;;;;;8289336;28;19914;-79
2023/04/29 12:42:15;;;;;;;;;;;23.60;99.90;;;;;;8291614;28;19916;-79
2023/04/29 12:46:16;;;;;;;;;;;23.70;99.90;;;;;;8275068;28;20301;-79
2023/04/29 12:50:17;;;;;;;;;;;22.90;99.50;;;;;;8291091;28;20000;-79
2023/04/29 12:54:17;;;;;;;;;;;22.80;99.90;;;;;;8290625;28;19952;-78
2023/04/29 12:58:18;;;;;;;;;;;23.70;99.80;;;;;;8273860;28;19914;-78
2023/04/29 13:02:18;;;;;;;;;;;22.50;99.90;;;;;;8272684;28;19947;-78
2023/04/29 13:06:19;;;;;;;;;;;21.00;99.90;;;;;;8291178;28;19917;-79
2023/04/29 13:10:19;;;;;;;;;;;22.90;99.90;;;;;;8290428;28;19917;-79
2023/04/29 13:14:20;;;;;;;;;;;23.30;99.90;;;;;;8289881;28;20334;-77
2023/04/29 13:18:21;;;;;;;;;;;23.50;99.90;;;;;;8265181;28;19910;-78
2023/04/29 13:22:21;;;;;;;;;;;23.80;99.90;;;;;;8278222;28;19921;-79
2023/04/29 13:26:23;;;;;;;;;;;24.90;95.50;;;;;;8273469;28;20013;-79
2023/04/29 13:30:24;;;;;;;;;;;22.60;98.90;;;;;;8296012;28;19921;-79
2023/04/29 13:34:24;;;;;;;;;;;21.20;99.90;;;;;;8299618;28;19973;-79
2023/04/29 13:38:25;;;;;;;;;;;20.40;99.90;;;;;;8272011;28;19916;-78
2023/04/29 13:42:25;;;;;;;;;;;19.50;99.90;;;;;;8295820;28;20000;-79
2023/04/29 13:46:27;;;;;;;;;;;18.90;99.90;;;;;;8291275;28;20004;-79
2023/04/29 13:50:27;;;;;;;;;;;20.10;99.90;;;;;;8295366;28;20309;-79
2023/04/29 13:54:28;;;;;;;;;;;21.20;99.90;;;;;;8296072;28;19924;-78
2023/04/29 13:58:28;;;;;;;;;;;20.00;99.90;;;;;;8273874;28;19921;-79
2023/04/29 14:02:29;;;;;;;;;;;20.00;99.90;;;;;;8295172;28;19967;-79
2023/04/29 14:06:31;;;;;;;;;;;20.50;99.90;;;;;;8287132;28;19917;-79
2023/04/29 14:10:31;;;;;;;;;;;21.50;99.90;;;;;;8295962;28;20008;-79
2023/04/29 14:14:31;;;;;;;;;;;20.10;99.90;;;;;;8296342;28;19914;-79
2023/04/29 14:18:32;;;;;;;;;;;20.00;99.90;;;;;;8289523;28;19910;-79
2023/04/29 14:22:32;;;;;;;;;;;21.30;99.90;;;;;;8295906;28;19917;-79
2023/04/29 14:26:33;;;;;;;;;;;21.80;99.90;;;;;;8287687;28;19914;-78
2023/04/29 14:30:33;;;;;;;;;;;22.40;99.90;;;;;;8294298;28;19963;-78
2023/04/29 14:34:34;;;;;;;;;;;23.00;99.90;;;;;;8293421;28;19913;-81
2023/04/29 14:38:34;;;;;;;;;;;23.60;99.00;;;;;;8286613;28;19917;-79
2023/04/29 14:42:35;;;;;;;;;;;22.90;99.90;;;;;;8294968;28;19913;-79
2023/04/29 14:46:35;;;;;;;;;;;21.80;99.90;;;;;;8288224;28;19914;-79
2023/04/29 14:50:36;;;;;;;;;;;20.60;99.90;;;;;;8277893;28;19921;-78
2023/04/29 14:54:36;;;;;;;;;;;19.70;99.90;;;;;;8292968;28;19923;-79
2023/04/29 14:58:37;;;;;;;;;;;20.80;99.90;;;;;;8287838;28;20417;-78
2023/04/29 15:02:37;;;;;;;;;;;20.30;99.90;;;;;;8277519;28;19957;-78
2023/04/29 15:06:39;;;;;;;;;;;19.40;99.90;;;;;;8290585;28;19921;-79
2023/04/29 15:10:39;;;;;;;;;;;19.20;99.90;;;;;;8293868;28;19925;-79
2023/04/29 15:14:40;;;;;;;;;;;19.00;99.90;;;;;;8274401;28;20532;-79
2023/04/29 15:18:41;;;;;;;;;;;20.70;99.90;;;;;;8286585;28;20518;-79
2023/04/29 15:22:41;;;;;;;;;;;22.70;99.90;;;;;;8276605;28;20092;-79
2023/04/29 15:26:42;;;;;;;;;;;22.20;99.90;;;;;;8262170;28;20016;-80
2023/04/29 15:30:42;;;;;;;;;;;22.60;99.90;;;;;;8271078;28;19944;-80
2023/04/29 15:34:43;;;;;;;;;;;22.00;99.90;;;;;;8262580;28;19928;-78
2023/04/29 15:38:43;;;;;;;;;;;22.30;99.90;;;;;;8279681;28;19917;-80
2023/04/29 15:42:44;;;;;;;;;;;20.90;99.90;;;;;;8287611;28;19920;-79
2023/04/29 15:46:44;;;;;;;;;;;20.20;99.90;;;;;;8277921;28;19918;-81
2023/04/29 15:50:45;;;;;;;;;;;19.90;99.90;;;;;;8281353;28;20436;-79
2023/04/29 15:54:46;;;;;;;;;;;18.80;99.90;;;;;;8282962;28;20397;-78
2023/04/29 15:58:46;;;;;;;;;;;18.10;99.90;;;;;;8283460;28;19921;-79
2023/04/29 16:02:46;;;;;;;;;;;17.90;99.90;;;;;;8264168;28;19917;-78
2023/04/29 16:06:47;;;;;;;;;;;17.40;99.90;;;;;;8258684;28;19924;-79
2023/04/29 16:10:48;;;;;;;;;;;17.60;99.90;;;;;;8265827;28;19921;-78
2023/04/29 16:14:49;;;;;;;;;;;17.30;99.90;;;;;;8284663;28;19924;-79
2023/04/29 16:18:49;;;;;;;;;;;17.30;99.90;;;;;;8282206;28;20325;-78
2023/04/29 16:22:50;;;;;;;;;;;17.20;99.90;;;;;;8280154;28;20682;-78
2023/04/29 16:26:50;;;;;;;;;;;17.30;99.90;;;;;;8272679;28;20428;-78
2023/04/29 16:30:51;;;;;;;;;;;17.00;99.90;;;;;;8263343;28;20634;-78
2023/04/29 16:34:51;;;;;;;;;;;16.80;99.90;;;;;;8258682;28;19986;-77
2023/04/29 16:38:53;;;;;;;;;;;16.40;99.90;;;;;;8284144;28;20002;-78
2023/04/29 16:42:55;;;;;;;;;;;16.20;99.90;;;;;;8291368;28;19923;-78
2023/04/29 16:46:56;;;;;;;;;;;15.90;99.90;;;;;;8282889;28;19978;-78
2023/04/29 16:50:57;;;;;;;;;;;15.80;99.90;;;;;;8287708;28;20448;-78
2023/04/29 16:55:00;;;;;;;;;;;15.90;99.90;;;;;;8267094;28;20325;-80
2023/04/29 16:59:00;;;;;;;;;;;16.20;99.90;;;;;;8294598;28;20013;-78
2023/04/29 17:03:01;;;;;;;;;;;16.10;99.90;;;;;;8295234;28;19914;-79
2023/04/29 17:07:02;;;;;;;;;;;16.00;99.90;;;;;;8290753;28;19928;-79
2023/04/29 17:11:03;;;;;;;;;;;15.90;99.90;;;;;;8293997;28;19921;-79
2023/04/29 17:15:04;;;;;;;;;;;15.60;99.90;;;;;;8273265;28;19967;-79
2023/04/29 17:19:05;;;;;;;;;;;15.20;99.90;;;;;;8295290;28;20575;-80
2023/04/29 17:23:05;;;;;;;;;;;15.10;99.90;;;;;;8295634;28;19960;-79
2023/04/29 17:27:06;;;;;;;;;;;14.70;99.90;;;;;;8291438;28;19987;-78
2023/04/29 17:31:06;;;;;;;;;;;14.60;99.90;;;;;;8307474;28;19932;-79
2023/04/29 17:35:07;;;;;;;;;;;14.50;99.90;;;;;;8301362;28;20032;-78
2023/04/29 17:39:10;;;;;;;;;;;14.30;99.90;;;;;;8287839;28;19909;-78
2023/04/29 17:43:10;;;;;;;;;;;14.20;99.90;;;;;;8285703;28;20016;-79
2023/04/29 17:47:11;;;;;;;;;;;14.20;99.90;;;;;;8295591;28;19921;-79
2023/04/29 17:51:12;;;;;;;;;;;14.10;99.90;;;;;;8293406;28;19918;-80
2023/04/29 17:55:12;;;;;;;;;;;14.00;99.90;;;;;;8288708;28;19925;-80
2023/04/29 17:59:12;;;;;;;;;;;13.90;99.90;;;;;;8286457;28;19920;-78
2023/04/29 18:03:13;;;;;;;;;;;13.90;99.90;;;;;;8282969;28;19921;-78
2023/04/29 18:07:13;;;;;;;;;;;13.80;99.90;;;;;;8291881;28;20417;-79
2023/04/29 18:11:14;;;;;;;;;;;13.80;99.90;;;;;;8280908;28;20416;-78
2023/04/29 18:15:15;;;;;;;;;;;13.70;99.90;;;;;;8270979;28;19918;-79
2023/04/29 18:19:15;;;;;;;;;;;13.60;99.90;;;;;;8283820;28;20091;-77
2023/04/29 18:23:16;;;;;;;;;;;13.60;99.90;;;;;;8281303;28;19925;-79
2023/04/29 18:27:16;;;;;;;;;;;13.50;99.90;;;;;;8271031;28;19928;-78
2023/04/29 18:31:17;;;;;;;;;;;13.40;99.90;;;;;;8301854;28;19917;-78
2023/04/29 18:35:18;;;;;;;;;;;13.50;99.90;;;;;;8271167;28;19935;-79
2023/04/29 18:39:18;;;;;;;;;;;13.40;99.90;;;;;;8280762;28;19909;-78
2023/04/29 18:43:23;;;;;;;;;;;13.30;99.90;;;;;;8284633;28;19913;-78
2023/04/29 18:47:23;;;;;;;;;;;13.20;99.90;;;;;;8297035;28;20024;-78
2023/04/29 18:51:24;;;;;;;;;;;13.20;99.90;;;;;;8286084;28;19910;-79
2023/04/29 18:55:24;;;;;;;;;;;13.10;99.90;;;;;;8292946;28;19925;-77
2023/04/29 18:59:25;;;;;;;;;;;12.80;99.90;;;;;;8300414;28;20000;-78
2023/04/29 19:03:26;;;;;;;;;;;12.50;99.90;;;;;;8275403;28;19920;-78
2023/04/29 19:07:26;;;;;;;;;;;12.40;99.90;;;;;;8283571;28;19979;-78
2023/04/29 19:11:27;;;;;;;;;;;12.30;99.90;;;;;;8303523;28;19920;-78
2023/04/29 19:15:27;;;;;;;;;;;12.30;99.90;;;;;;8285289;28;19924;-77
2023/04/29 19:19:29;;;;;;;;;;;12.10;99.90;;;;;;8280318;28;19913;-77
2023/04/29 19:23:29;;;;;;;;;;;12.10;99.90;;;;;;8297232;28;19909;-78
2023/04/29 19:27:30;;;;;;;;;;;11.90;99.90;;;;;;8273532;28;19922;-78
2023/04/29 19:31:30;;;;;;;;;;;11.80;99.90;;;;;;8293515;28;19979;-79
2023/04/29 19:35:31;;;;;;;;;;;11.80;99.90;;;;;;8270862;28;20782;-78
2023/04/29 19:39:32;;;;;;;;;;;11.70;99.90;;;;;;8292982;28;19913;-78
2023/04/29 19:43:33;;;;;;;;;;;11.80;99.90;;;;;;8294625;28;19914;-79
2023/04/29 19:47:33;;;;;;;;;;;11.80;99.90;;;;;;8274056;28;19932;-79
2023/04/29 19:51:34;;;;;;;;;;;11.80;99.90;;;;;;8298123;28;19913;-79
2023/04/29 19:55:35;;;;;;;;;;;11.80;99.90;;;;;;8268854;28;19976;-78
2023/04/29 19:59:35;;;;;;;;;;;11.80;99.90;;;;;;8295662;28;19921;-78
2023/04/29 20:03:38;;;;;;;;;;;11.80;99.90;;;;;;8278612;28;19965;-81
2023/04/29 20:07:38;;;;;;;;;;;11.70;99.90;;;;;;8276973;28;20312;-78
2023/04/29 20:11:39;;;;;;;;;;;11.90;99.90;;;;;;8295106;28;19976;-79
2023/04/29 20:15:40;;;;;;;;;;;11.90;99.90;;;;;;8281666;28;19920;-79
2023/04/29 20:19:40;;;;;;;;;;;11.90;99.90;;;;;;8286476;28;20344;-79
2023/04/29 20:23:41;;;;;;;;;;;12.00;99.90;;;;;;8283244;28;19922;-78
2023/04/29 20:27:41;;;;;;;;;;;12.00;99.90;;;;;;8276687;28;19924;-79
2023/04/29 20:31:42;;;;;;;;;;;12.00;99.90;;;;;;8285040;28;19914;-78
2023/04/29 20:35:43;;;;;;;;;;;11.80;99.90;;;;;;8265791;28;19910;-78
2023/04/29 20:39:43;;;;;;;;;;;12.00;99.90;;;;;;8268811;28;19924;-78
2023/04/29 20:43:43;;;;;;;;;;;11.90;99.90;;;;;;8284110;28;20491;-78
2023/04/29 20:47:45;;;;;;;;;;;12.00;99.90;;;;;;8283578;28;20517;-78
2023/04/29 20:51:46;;;;;;;;;;;11.80;99.90;;;;;;8287822;28;20330;-79
2023/04/29 20:55:46;;;;;;;;;;;11.40;99.90;;;;;;8285252;28;19921;-78
2023/04/29 20:59:47;;;;;;;;;;;11.20;99.90;;;;;;8287418;28;19921;-79
2023/04/29 21:03:47;;;;;;;;;;;11.20;99.90;;;;;;8268974;28;19921;-80
2023/04/29 21:07:48;;;;;;;;;;;11.30;99.90;;;;;;8264203;28;20012;-79
2023/04/29 21:11:48;;;;;;;;;;;11.40;99.90;;;;;;8287248;28;20007;-78
2023/04/29 21:15:49;;;;;;;;;;;11.50;99.90;;;;;;8277956;28;20365;-78
2023/04/29 21:19:50;;;;;;;;;;;11.50;99.90;;;;;;8283160;28;20290;-79
2023/04/29 21:23:50;;;;;;;;;;;11.60;99.90;;;;;;8269991;28;19921;-80
2023/04/29 21:27:51;;;;;;;;;;;11.50;99.90;;;;;;8265108;28;19987;-79
2023/04/29 21:31:51;;;;;;;;;;;11.50;99.90;;;;;;8297729;28;19949;-78
2023/04/29 21:35:52;;;;;;;;;;;11.50;99.90;;;;;;8284943;28;20350;-78
2023/04/29 21:39:56;;;;;;;;;;;11.40;99.90;;;;;;8273919;28;20408;-79
2023/04/29 21:43:57;;;;;;;;;;;11.70;99.90;;;;;;8279030;28;19909;-79
2023/04/29 21:48:02;;;;;;;;;;;11.60;99.90;;;;;;8273999;28;20329;-79
2023/04/29 21:52:03;;;;;;;;;;;11.50;99.90;;;;;;8298622;28;19925;-79
2023/04/29 21:56:04;;;;;;;;;;;11.30;99.90;;;;;;8289851;28;20708;-79
2023/04/29 22:00:17;;;;;;;;;;;11.40;99.90;;;;;;8297405;28;19964;-79
2023/04/29 22:04:18;;;;;;;;;;;11.50;99.90;;;;;;8294864;28;20015;-79
2023/04/29 22:08:19;;;;;;;;;;;11.70;99.90;;;;;;8290771;28;19920;-80
2023/04/29 22:12:20;;;;;;;;;;;11.70;99.90;;;;;;8279690;28;19920;-79
2023/04/29 22:16:22;;;;;;;;;;;11.60;99.90;;;;;;8274286;28;19941;-80
2023/04/29 22:20:22;;;;;;;;;;;11.70;99.90;;;;;;8295647;28;19910;-78
2023/04/29 22:24:23;;;;;;;;;;;11.70;99.90;;;;;;8280179;28;19960;-79
2023/04/29 22:28:23;;;;;;;;;;;11.80;99.90;;;;;;8273662;28;20377;-80
2023/04/29 22:32:24;;;;;;;;;;;11.60;99.90;;;;;;8279372;28;19995;-79
2023/04/29 22:36:24;;;;;;;;;;;11.40;99.90;;;;;;8289982;28;19913;-79
2023/04/29 22:40:25;;;;;;;;;;;11.40;99.90;;;;;;8296786;28;19913;-78
2023/04/29 22:44:25;;;;;;;;;;;11.20;99.90;;;;;;8279547;28;20544;-80
2023/04/29 22:48:26;;;;;;;;;;;11.20;99.90;;;;;;8289178;28;19910;-79
2023/04/29 22:52:27;;;;;;;;;;;11.20;99.90;;;;;;8278230;28;19964;-79
2023/04/29 22:56:27;;;;;;;;;;;11.20;99.90;;;;;;8291822;28;19917;-79
2023/04/29 23:00:28;;;;;;;;;;;11.30;99.90;;;;;;8295148;28;19921;-79
2023/04/29 23:04:29;;;;;;;;;;;11.20;99.90;;;;;;8295502;28;20386;-80
2023/04/29 23:08:30;;;;;;;;;;;11.00;99.90;;;;;;8290776;28;19910;-80
2023/04/29 23:12:30;;;;;;;;;;;10.90;99.90;;;;;;8278606;28;19917;-80
2023/04/29 23:16:30;;;;;;;;;;;11.00;99.90;;;;;;8293082;28;19952;-79
2023/04/29 23:20:31;;;;;;;;;;;11.10;99.90;;;;;;8296688;28;20382;-79